Time;durP1;ratioP1;P1;durP2;ratioP2;P2;SDS_P1;SDS_P2;PMS_P1;PMS_P2;Temp;Humidity;BMP_temperature;BMP_pressure;BME280_temperature;BME280_humidity;BME280_pressure;Samples;Min_cycle;Max_cycle;Signal;HPM_P1;HPM_P2
2022/05/08 00:00:34;;;;;;;21.50;14.60;;;;;;;8.60;90.34;95094.55;1681786;84;21538;-55
2022/05/08 00:03:01;;;;;;;18.87;12.65;;;;;;;8.67;89.82;95097.91;1681967;85;20986;-53
2022/05/08 00:05:27;;;;;;;21.17;16.02;;;;;;;8.75;89.56;95099.87;1681853;85;21152;-52
2022/05/08 00:07:54;;;;;;;25.37;17.32;;;;;;;8.75;88.84;95096.54;1682053;85;21594;-52
2022/05/08 00:10:20;;;;;;;25.12;18.67;;;;;;;8.73;88.78;95092.67;1656589;85;21013;-53
2022/05/08 00:12:47;;;;;;;19.35;15.80;;;;;;;8.73;88.61;95092.67;1681776;85;21080;-53
2022/05/08 00:15:14;;;;;;;22.48;16.57;;;;;;;8.65;88.31;95087.94;1682035;85;21542;-53
2022/05/08 00:17:41;;;;;;;17.40;13.78;;;;;;;8.58;88.28;95086.73;1681770;85;21208;-53
2022/05/08 00:20:09;;;;;;;15.35;13.70;;;;;;;8.59;88.41;95089.66;1681790;85;20973;-54
2022/05/08 00:22:45;;;;;;;20.08;16.45;;;;;;;8.59;88.21;95089.66;1681828;85;21117;-52
2022/05/08 00:25:12;;;;;;;19.10;14.60;;;;;;;8.63;88.33;95088.22;1681822;85;21076;-52
2022/05/08 00:27:39;;;;;;;18.85;13.93;;;;;;;8.64;88.09;95085.03;1656472;85;21097;-53
2022/05/08 00:30:08;;;;;;;24.15;16.05;;;;;;;8.64;88.04;95085.64;1682043;85;21542;-53
2022/05/08 00:32:35;;;;;;;18.67;14.75;;;;;;;8.59;87.97;95082.80;1682137;84;21149;-54
2022/05/08 00:35:02;;;;;;;15.53;12.60;;;;;;;8.58;88.23;95086.73;1686728;84;21080;-53
2022/05/08 00:37:29;;;;;;;15.03;12.43;;;;;;;8.58;88.36;95081.26;1686993;85;20985;-53
2022/05/08 00:39:56;;;;;;;16.00;13.32;;;;;;;8.60;88.36;95080.84;1687529;84;21053;-53
2022/05/08 00:42:22;;;;;;;20.32;13.65;;;;;;;8.62;88.53;95080.57;1687227;84;22019;-53
2022/05/08 00:44:49;;;;;;;18.25;13.25;;;;;;;8.62;88.40;95079.20;1687258;85;20981;-53
2022/05/08 00:47:16;;;;;;;20.68;13.48;;;;;;;8.57;88.40;95074.23;1686969;85;21144;-52
2022/05/08 00:49:43;;;;;;;17.20;12.53;;;;;;;8.55;88.52;95076.63;1686987;85;21097;-53
2022/05/08 00:52:12;;;;;;;18.73;13.43;;;;;;;8.60;88.56;95075.36;1686653;85;20993;-54
2022/05/08 00:54:39;;;;;;;19.95;14.40;;;;;;;8.57;88.55;95079.71;1687097;85;21287;-55
2022/05/08 00:57:07;;;;;;;22.77;14.20;;;;;;;8.54;88.92;95077.83;1687292;85;21038;-54
2022/05/08 00:59:35;;;;;;;23.65;15.53;;;;;;;8.52;88.91;95074.74;1687027;85;21058;-54
2022/05/08 01:02:03;;;;;;;18.80;13.45;;;;;;;8.50;89.00;95075.77;1687379;85;21457;-55
2022/05/08 01:04:30;;;;;;;21.20;13.03;;;;;;;8.52;89.10;95076.11;1687194;85;21006;-55
2022/05/08 01:06:57;;;;;;;17.27;14.15;;;;;;;8.57;89.10;95076.97;1687144;85;21160;-52
2022/05/08 01:09:24;;;;;;;32.28;18.77;;;;;;;8.58;89.06;95072.27;1687113;85;21029;-54
2022/05/08 01:11:50;;;;;;;22.55;16.85;;;;;;;8.58;89.18;95074.41;1687021;85;21053;-53
2022/05/08 01:14:17;;;;;;;24.20;16.05;;;;;;;8.59;89.44;95077.31;1687144;85;21090;-54
2022/05/08 01:16:44;;;;;;;26.27;15.70;;;;;;;8.60;89.48;95079.47;1687125;85;21045;-52
2022/05/08 01:19:11;;;;;;;27.40;15.85;;;;;;;8.64;89.55;95076.05;1687091;85;21304;-54
2022/05/08 01:21:42;;;;;;;22.27;16.05;;;;;;;8.72;90.08;95072.71;1687138;85;21524;-55
2022/05/08 01:24:13;;;;;;;25.20;17.37;;;;;;;8.82;90.39;95071.67;1677113;85;20989;-55
2022/05/08 01:26:40;;;;;;;30.40;16.75;;;;;;;8.89;90.20;95071.53;1687167;85;21481;-55
2022/05/08 01:29:07;;;;;;;32.93;17.20;;;;;;;8.88;90.00;95073.48;1651804;87;21081;-52
2022/05/08 01:31:35;;;;;;;25.90;16.37;;;;;;;8.84;89.95;95069.28;1651718;86;21513;-54
2022/05/08 01:34:02;;;;;;;23.05;15.80;;;;;;;8.82;90.14;95068.18;1649583;86;21078;-53
2022/05/08 01:36:28;;;;;;;25.10;16.67;;;;;;;8.79;90.09;95073.91;1681549;85;21470;-55
2022/05/08 01:38:56;;;;;;;24.37;13.70;;;;;;;8.73;90.29;95066.03;1681607;85;21038;-54
2022/05/08 01:41:23;;;;;;;17.48;12.43;;;;;;;8.67;90.13;95072.44;1655483;85;21108;-54
2022/05/08 01:43:51;;;;;;;19.23;13.62;;;;;;;8.56;89.77;95074.06;1656957;85;21268;-53
2022/05/08 01:46:18;;;;;;;20.17;13.28;;;;;;;8.46;89.79;95069.56;1681770;85;21018;-52
2022/05/08 01:48:44;;;;;;;17.73;12.00;;;;;;;8.44;90.18;95080.19;1646254;87;21070;-54
2022/05/08 01:51:12;;;;;;;26.40;14.95;;;;;;;8.44;90.05;95080.19;1681623;85;21018;-52
2022/05/08 01:53:40;;;;;;;25.23;16.32;;;;;;;8.37;89.92;95085.05;1681821;85;20998;-55
2022/05/08 01:56:08;;;;;;;23.25;15.63;;;;;;;8.32;90.35;95082.82;1679078;85;21860;-55
2022/05/08 01:58:36;;;;;;;19.37;12.80;;;;;;;8.33;90.78;95079.67;1681742;85;21037;-53
2022/05/08 02:01:04;;;;;;;15.93;11.95;;;;;;;8.36;90.61;95073.33;1681462;85;21525;-54
2022/05/08 02:03:31;;;;;;;24.10;14.28;;;;;;;8.32;90.38;95072.64;1681853;85;20998;-53
2022/05/08 02:05:58;;;;;;;25.75;14.98;;;;;;;8.26;90.29;95075.69;1646335;87;20978;-54
2022/05/08 02:08:24;;;;;;;25.65;14.75;;;;;;;8.24;90.63;95072.61;1645947;87;21140;-53
2022/05/08 02:10:55;;;;;;;25.48;13.58;;;;;;;8.22;90.62;95072.26;1646411;86;21031;-51
2022/05/08 02:13:22;;;;;;;27.30;13.90;;;;;;;8.22;90.65;95074.24;1646131;87;21483;-54
2022/05/08 02:15:49;;;;;;;17.15;13.18;;;;;;;8.19;90.48;95077.22;1681700;85;21034;-53
2022/05/08 02:18:16;;;;;;;22.20;15.28;;;;;;;8.12;90.44;95074.61;1646282;87;21113;-54
2022/05/08 02:20:44;;;;;;;22.02;15.08;;;;;;;8.05;90.63;95073.37;1681647;85;22652;-53
2022/05/08 02:23:11;;;;;;;29.10;16.42;;;;;;;7.98;90.68;95077.63;1681836;84;20979;-53
2022/05/08 02:25:37;;;;;;;22.40;14.00;;;;;;;7.93;90.94;95076.77;1681451;85;22219;-55
2022/05/08 02:28:05;;;;;;;24.47;15.72;;;;;;;7.89;91.01;95071.17;1681569;85;21042;-52
2022/05/08 02:30:31;;;;;;;20.65;13.53;;;;;;;7.83;90.97;95080.47;1681896;85;20977;-52
2022/05/08 02:33:00;;;;;;;21.50;13.80;;;;;;;7.78;91.13;95081.55;1681560;85;21100;-53
2022/05/08 02:35:26;;;;;;;23.12;13.60;;;;;;;7.69;91.45;95084.09;1681438;84;21133;-53
2022/05/08 02:37:54;;;;;;;21.68;13.48;;;;;;;7.64;91.78;95094.92;1681960;85;21609;-53
2022/05/08 02:40:24;;;;;;;16.00;12.45;;;;;;;7.63;92.16;95088.48;1681596;85;20998;-51
2022/05/08 02:42:51;;;;;;;27.35;14.87;;;;;;;7.63;92.24;95092.59;1682121;85;21140;-52
2022/05/08 02:45:18;;;;;;;22.32;14.43;;;;;;;7.63;92.40;95089.86;1681578;85;21218;-54
2022/05/08 02:47:45;;;;;;;22.05;14.75;;;;;;;7.59;92.34;95091.89;1681428;85;21082;-55
2022/05/08 02:50:12;;;;;;;20.12;13.72;;;;;;;7.56;92.53;95087.26;1681693;85;21010;-53
2022/05/08 02:52:39;;;;;;;16.42;12.58;;;;;;;7.57;92.75;95092.33;1681990;85;21495;-52
2022/05/08 03:00:40;;;;;;;16.90;12.63;;;;;;;7.58;92.82;95096.61;1681802;85;20998;-54
2022/05/08 03:03:08;;;;;;;17.05;12.33;;;;;;;7.54;92.76;95094.51;1681811;85;21533;-53
2022/05/08 03:05:36;;;;;;;16.62;11.78;;;;;;;7.51;92.83;95099.45;1681501;85;21056;-52
2022/05/08 03:08:07;;;;;;;13.45;10.48;;;;;;;7.50;92.76;95097.16;1681892;85;21064;-54
2022/05/08 03:13:20;;;;;;;12.95;11.15;;;;;;;7.49;93.16;95092.27;1681828;85;20970;-54
2022/05/08 03:15:47;;;;;;;14.83;10.88;;;;;;;7.49;93.24;95094.24;1656588;85;21033;-54
2022/05/08 03:18:16;;;;;;;10.85;9.85;;;;;;;7.46;93.25;95093.69;1682052;85;21057;-54
2022/05/08 03:20:47;;;;;;;10.72;8.93;;;;;;;7.45;93.11;95092.14;1681929;84;21053;-53
2022/05/08 03:23:14;;;;;;;10.43;9.35;;;;;;;7.45;93.20;95095.66;1681670;84;21167;-54
2022/05/08 03:25:41;;;;;;;10.88;8.98;;;;;;;7.51;93.17;95100.83;1681721;85;21490;-53
2022/05/08 03:28:07;;;;;;;11.30;9.78;;;;;;;7.51;92.84;95098.09;1681668;85;21040;-55
2022/05/08 03:30:34;;;;;;;10.93;9.68;;;;;;;7.50;92.76;95098.52;1681879;85;21025;-53
2022/05/08 03:33:00;;;;;;;8.50;7.50;;;;;;;7.50;92.60;95100.66;1681955;85;21446;-55
2022/05/08 03:35:27;;;;;;;10.68;9.58;;;;;;;7.51;92.36;95102.80;1681850;84;21125;-53
2022/05/08 03:37:54;;;;;;;13.55;11.03;;;;;;;7.49;92.13;95101.09;1681547;85;21045;-52
2022/05/08 03:40:21;;;;;;;15.35;10.45;;;;;;;7.51;92.25;95106.91;1681822;85;21037;-55
2022/05/08 03:42:48;;;;;;;20.50;12.20;;;;;;;7.53;91.91;95112.73;1681964;85;20989;-54
2022/05/08 03:45:17;;;;;;;16.07;10.40;;;;;;;7.49;91.67;95110.05;1681768;85;21101;-52
2022/05/08 03:47:44;;;;;;;11.65;9.70;;;;;;;7.49;91.54;95112.04;1681650;85;21217;-54
2022/05/08 03:50:10;;;;;;;12.60;9.88;;;;;;;7.52;91.59;95116.06;1681768;85;22336;-52
2022/05/08 03:52:37;;;;;;;12.85;9.30;;;;;;;7.55;91.50;95115.22;1681976;85;21029;-55
2022/05/08 03:55:06;;;;;;;12.35;9.50;;;;;;;7.57;91.42;95121.66;1681855;85;21065;-52
2022/05/08 03:57:32;;;;;;;11.43;9.65;;;;;;;7.58;91.44;95121.25;1681968;85;21466;-54
2022/05/08 03:59:59;;;;;;;12.73;9.25;;;;;;;7.60;91.42;95123.55;1681972;84;21106;-52
2022/05/08 04:02:26;;;;;;;11.60;9.05;;;;;;;7.65;91.44;95121.11;1681664;85;21010;-53
2022/05/08 04:04:52;;;;;;;13.35;9.05;;;;;;;7.72;91.30;95126.45;1681757;85;20990;-54
2022/05/08 04:07:21;;;;;;;14.18;11.10;;;;;;;7.77;91.17;95125.98;1681817;85;21038;-55
2022/05/08 04:09:49;;;;;;;20.70;12.07;;;;;;;7.81;91.04;95122.58;1681966;85;21042;-54
2022/05/08 04:12:17;;;;;;;11.22;9.85;;;;;;;7.90;91.18;95122.02;1681587;85;21146;-55
2022/05/08 04:14:44;;;;;;;13.40;10.95;;;;;;;7.97;90.69;95129.51;1679132;85;21065;-56
2022/05/08 04:17:10;;;;;;;11.57;9.73;;;;;;;8.02;90.25;95131.75;1681678;85;21006;-53
2022/05/08 04:19:37;;;;;;;15.45;10.65;;;;;;;8.09;90.14;95132.97;1681785;85;21502;-53
2022/05/08 04:24:51;;;;;;;27.73;16.48;;;;;;;8.25;89.83;95142.66;1681755;85;21197;-53
2022/05/08 04:27:18;;;;;;;42.17;22.67;;;;;;;8.31;89.61;95136.09;1681452;85;21022;-53
2022/05/08 04:29:46;;;;;;;76.57;37.25;;;;;;;8.35;89.47;95136.20;1681853;85;21004;-53
2022/05/08 04:32:13;;;;;;;62.80;33.40;;;;;;;8.44;89.34;95138.37;1681921;85;20994;-52
2022/05/08 04:34:39;;;;;;;53.78;31.07;;;;;;;8.52;89.12;95143.29;1681680;84;21122;-53
2022/05/08 04:37:06;;;;;;;45.63;26.87;;;;;;;8.64;88.97;95145.36;1655421;85;21695;-54
2022/05/08 04:39:33;;;;;;;46.30;25.45;;;;;;;8.74;88.46;95144.95;1681702;85;21073;-53
2022/05/08 04:42:01;;;;;;;31.97;21.85;;;;;;;8.78;87.88;95143.69;1656524;85;21025;-52
2022/05/08 04:44:29;;;;;;;19.52;12.37;;;;;;;8.82;87.38;95143.62;1679381;85;20990;-52
2022/05/08 04:46:55;;;;;;;18.73;12.18;;;;;;;8.89;86.94;95143.63;1681836;85;21050;-54
2022/05/08 04:49:22;;;;;;;18.40;11.93;;;;;;;8.96;86.35;95152.30;1656423;85;21398;-53
2022/05/08 04:51:49;;;;;;;26.45;14.53;;;;;;;8.99;85.85;95152.23;1681657;84;21018;-53
2022/05/08 04:54:15;;;;;;;20.75;16.05;;;;;;;9.00;85.60;95157.89;1681793;85;21486;-54
2022/05/08 04:56:42;;;;;;;26.57;18.80;;;;;;;8.98;85.31;95155.38;1681854;85;21525;-56
2022/05/08 04:59:09;;;;;;;21.00;15.03;;;;;;;8.99;85.44;95155.55;1681933;85;20967;-53
2022/05/08 05:01:37;;;;;;;17.42;13.88;;;;;;;9.06;85.35;95152.66;1681615;85;21115;-53
2022/05/08 05:04:04;;;;;;;16.37;12.95;;;;;;;9.15;84.96;95156.36;1681881;85;21525;-53
2022/05/08 05:06:32;;;;;;;14.13;12.20;;;;;;;9.23;84.97;95159.09;1682025;84;21041;-53
2022/05/08 05:09:00;;;;;;;12.75;11.05;;;;;;;9.33;84.53;95158.09;1681853;84;20998;-53
2022/05/08 05:11:26;;;;;;;13.88;9.60;;;;;;;9.41;84.31;95158.69;1681797;85;21029;-52
2022/05/08 05:13:53;;;;;;;14.13;10.08;;;;;;;9.47;83.63;95155.59;1681668;85;21084;-53
2022/05/08 05:16:19;;;;;;;8.33;7.40;;;;;;;9.48;83.46;95155.77;1681718;85;20977;-54
2022/05/08 05:18:47;;;;;;;10.45;9.30;;;;;;;9.54;83.29;95162.27;1681657;85;21170;-54
2022/05/08 05:21:14;;;;;;;10.50;9.18;;;;;;;9.60;83.38;95161.95;1681704;85;21018;-54
2022/05/08 05:23:42;;;;;;;9.23;8.25;;;;;;;9.67;83.30;95155.67;1681792;85;21477;-55
2022/05/08 05:26:08;;;;;;;9.25;8.38;;;;;;;9.81;83.25;95153.16;1655492;85;21284;-54
2022/05/08 05:28:35;;;;;;;9.38;8.48;;;;;;;9.97;82.95;95153.13;1681705;85;21569;-55
2022/05/08 05:31:02;;;;;;;8.50;7.70;;;;;;;10.14;82.72;95156.05;1655657;85;20994;-53
2022/05/08 05:33:30;;;;;;;8.95;6.80;;;;;;;10.26;82.29;95156.67;1655526;85;21477;-53
2022/05/08 05:35:56;;;;;;;8.28;6.00;;;;;;;10.38;82.02;95156.70;1685600;84;21576;-55
2022/05/08 05:38:23;;;;;;;7.47;6.30;;;;;;;10.46;81.17;95154.53;1687216;85;21491;-53
2022/05/08 05:40:52;;;;;;;12.43;7.62;;;;;;;10.50;80.81;95155.23;1686868;85;20966;-55
2022/05/08 05:43:18;;;;;;;7.85;6.78;;;;;;;10.56;80.45;95156.98;1687183;85;20997;-55
2022/05/08 05:45:45;;;;;;;6.83;6.22;;;;;;;10.63;80.16;95156.01;1683424;83;21077;-56
2022/05/08 05:48:11;;;;;;;6.53;5.92;;;;;;;10.70;79.87;95155.82;1685390;83;21629;-54
2022/05/08 05:50:38;;;;;;;9.78;6.65;;;;;;;10.83;79.53;95156.76;1684911;83;21138;-55
2022/05/08 05:53:05;;;;;;;9.13;7.00;;;;;;;10.95;79.27;95153.26;1685338;83;21498;-57
2022/05/08 05:55:33;;;;;;;10.28;7.78;;;;;;;11.06;78.87;95152.93;1685752;83;21085;-57
2022/05/08 05:58:02;;;;;;;9.08;6.90;;;;;;;11.20;78.42;95153.87;1684900;83;21086;-60
2022/05/08 06:00:28;;;;;;;7.35;6.65;;;;;;;11.36;78.35;95153.77;1686756;83;21033;-55
2022/05/08 06:02:55;;;;;;;9.53;7.15;;;;;;;11.51;77.99;95147.97;1685450;83;21264;-54
2022/05/08 06:05:22;;;;;;;7.50;6.28;;;;;;;11.61;77.39;95151.78;1662115;83;21554;-54
2022/05/08 06:07:49;;;;;;;15.40;11.75;;;;;;;11.68;77.04;95148.78;1686461;83;21037;-55
2022/05/08 06:10:16;;;;;;;8.40;7.50;;;;;;;11.77;77.32;95146.13;1683686;83;21045;-55
2022/05/08 06:12:43;;;;;;;8.53;7.05;;;;;;;11.96;77.18;95149.81;1683447;83;21001;-56
2022/05/08 06:15:10;;;;;;;8.20;7.40;;;;;;;12.07;76.56;95145.47;1685558;83;21175;-56
2022/05/08 06:17:38;;;;;;;8.53;7.30;;;;;;;12.16;76.58;95138.67;1684495;83;21030;-55
2022/05/08 06:20:06;;;;;;;7.72;7.05;;;;;;;12.27;76.02;95140.42;1685591;83;21036;-55
2022/05/08 06:22:35;;;;;;;7.72;6.47;;;;;;;12.40;75.22;95143.91;1684739;83;22025;-54
2022/05/08 06:25:03;;;;;;;7.00;6.40;;;;;;;12.49;74.25;95139.81;1686294;83;21004;-58
2022/05/08 06:27:29;;;;;;;6.58;5.97;;;;;;;12.57;73.70;95132.83;1664081;83;21238;-55
2022/05/08 06:29:58;;;;;;;7.08;6.47;;;;;;;12.59;72.82;95127.63;1685112;83;21696;-56
2022/05/08 06:32:25;;;;;;;7.40;6.62;;;;;;;12.57;72.96;95125.31;1685374;83;21097;-55
2022/05/08 06:34:52;;;;;;;7.05;6.35;;;;;;;12.57;72.67;95123.17;1685194;83;21530;-56
2022/05/08 06:37:18;;;;;;;8.40;6.70;;;;;;;12.56;72.58;95127.16;1680249;84;21529;-54
2022/05/08 06:39:46;;;;;;;9.18;6.65;;;;;;;12.64;72.51;95128.42;1680661;84;21065;-54
2022/05/08 06:42:12;;;;;;;11.83;7.08;;;;;;;12.73;72.44;95120.21;1681373;84;21014;-56
2022/05/08 06:44:46;;;;;;;6.92;6.28;;;;;;;12.89;72.08;95121.38;1681051;84;21806;-56
2022/05/08 06:47:13;;;;;;;6.78;5.25;;;;;;;13.07;71.98;95121.49;1680809;84;21525;-55
2022/05/08 06:49:40;;;;;;;7.53;6.83;;;;;;;13.23;71.33;95121.26;1681938;84;21081;-55
2022/05/08 06:52:07;;;;;;;10.70;7.75;;;;;;;13.26;70.93;95121.09;1655105;85;21208;-55
2022/05/08 06:54:33;;;;;;;8.45;6.90;;;;;;;13.35;70.69;95118.98;1681421;85;21108;-57
2022/05/08 06:57:00;;;;;;;6.97;6.22;;;;;;;13.43;70.22;95117.48;1681771;84;21021;-55
2022/05/08 07:02:12;;;;;;;8.78;7.30;;;;;;;13.48;69.91;95112.73;1681806;84;21047;-54
2022/05/08 07:04:39;;;;;;;7.00;6.30;;;;;;;13.62;69.50;95112.16;1681653;85;21225;-57
2022/05/08 07:07:06;;;;;;;7.22;5.90;;;;;;;13.73;69.25;95113.25;1656252;85;21534;-57
2022/05/08 07:09:35;;;;;;;6.87;6.22;;;;;;;13.87;68.64;95103.59;1681713;85;21051;-56
2022/05/08 07:12:04;;;;;;;8.45;7.17;;;;;;;14.00;68.45;95108.37;1681959;85;21494;-56
2022/05/08 07:14:31;;;;;;;7.05;6.35;;;;;;;14.09;68.33;95110.53;1681898;84;20978;-55
2022/05/08 07:16:58;;;;;;;6.35;5.75;;;;;;;14.26;68.47;95104.88;1681520;85;21947;-54
2022/05/08 07:19:27;;;;;;;7.62;6.83;;;;;;;14.49;68.44;95104.23;1655721;85;21042;-53
2022/05/08 07:21:54;;;;;;;6.20;5.60;;;;;;;14.70;68.50;95098.52;1681681;85;21241;-55
2022/05/08 07:24:21;;;;;;;9.75;6.67;;;;;;;14.90;67.08;95102.94;1681954;85;21458;-56
2022/05/08 07:26:47;;;;;;;7.80;6.20;;;;;;;15.03;65.97;95105.51;1681613;85;21041;-56
2022/05/08 07:29:14;;;;;;;6.00;5.50;;;;;;;15.13;65.48;95108.37;1677951;84;21089;-57
2022/05/08 07:31:45;;;;;;;6.67;6.00;;;;;;;15.24;64.85;95101.13;1668128;85;21097;-55
2022/05/08 07:36:57;;;;;;;5.35;4.85;;;;;;;15.55;63.26;95089.12;1686384;84;21085;-54
2022/05/08 07:39:24;;;;;;;6.30;5.70;;;;;;;15.69;62.16;95085.66;1687214;85;21124;-56
2022/05/08 07:41:51;;;;;;;7.60;5.35;;;;;;;15.73;61.65;95089.02;1687282;85;21221;-55
2022/05/08 07:44:19;;;;;;;6.03;5.45;;;;;;;15.80;61.40;95092.84;1664094;85;20961;-56
2022/05/08 07:46:45;;;;;;;9.08;5.95;;;;;;;15.94;60.58;95091.36;1686973;85;21035;-54
2022/05/08 07:49:12;;;;;;;12.25;5.85;;;;;;;15.99;60.52;95085.94;1687019;85;20997;-54
2022/05/08 07:51:38;;;;;;;6.87;5.80;;;;;;;16.09;61.03;95086.00;1687277;85;21022;-54
2022/05/08 07:54:05;;;;;;;6.75;6.05;;;;;;;16.26;61.42;95091.27;1687193;85;21927;-55
2022/05/08 07:56:35;;;;;;;8.33;6.25;;;;;;;16.47;62.30;95088.80;1687335;84;21514;-55
2022/05/08 07:59:01;;;;;;;6.33;5.72;;;;;;;16.71;62.81;95090.90;1664520;85;21474;-56
2022/05/08 08:01:28;;;;;;;6.67;5.97;;;;;;;16.95;61.35;95081.84;1687321;85;21069;-55
2022/05/08 08:03:55;;;;;;;5.70;5.20;;;;;;;17.13;60.07;95080.24;1687358;85;21033;-56
2022/05/08 08:06:21;;;;;;;5.75;5.25;;;;;;;17.33;59.71;95084.48;1688461;85;21259;-55
2022/05/08 08:08:48;;;;;;;7.42;5.60;;;;;;;17.47;59.09;95083.08;1665518;85;21108;-56
2022/05/08 08:11:15;;;;;;;8.80;5.47;;;;;;;17.61;58.31;95078.75;1665182;85;32697;-56
2022/05/08 08:13:42;;;;;;;7.65;5.00;;;;;;;17.75;57.92;95081.48;1687051;85;20990;-55
2022/05/08 08:16:09;;;;;;;5.17;4.67;;;;;;;17.94;55.85;95076.41;1687020;85;21588;-55
2022/05/08 08:18:38;;;;;;;4.95;4.35;;;;;;;18.16;55.95;95075.31;1687352;85;21135;-55
2022/05/08 08:21:05;;;;;;;6.20;5.10;;;;;;;18.35;55.31;95076.72;1687147;85;21081;-54
2022/05/08 08:23:32;;;;;;;5.75;4.87;;;;;;;18.51;55.23;95074.75;1687126;83;20982;-56
2022/05/08 08:25:59;;;;;;;9.30;5.30;;;;;;;18.71;54.58;95071.92;1687031;85;20989;-55
2022/05/08 08:28:26;;;;;;;6.85;5.37;;;;;;;18.91;54.45;95069.06;1687142;85;21089;-55
2022/05/08 08:30:52;;;;;;;7.12;5.12;;;;;;;19.09;54.85;95065.94;1687083;85;21438;-55
2022/05/08 08:33:19;;;;;;;5.30;4.80;;;;;;;19.30;55.23;95067.41;1687167;85;21422;-54
2022/05/08 08:35:46;;;;;;;5.85;4.72;;;;;;;19.51;52.71;95060.45;1687142;83;21062;-56
2022/05/08 08:38:14;;;;;;;4.70;4.25;;;;;;;19.68;53.00;95060.55;1687379;85;21042;-55
2022/05/08 08:40:42;;;;;;;4.53;4.05;;;;;;;19.87;54.70;95066.64;1665687;85;21453;-54
2022/05/08 08:43:11;;;;;;;4.80;4.40;;;;;;;20.02;52.32;95054.69;1687141;85;22116;-54
2022/05/08 08:48:33;;;;;;;5.22;4.67;;;;;;;20.16;50.26;95053.75;1651696;86;21010;-55
2022/05/08 08:51:01;;;;;;;5.17;3.72;;;;;;;20.28;49.29;95046.91;1651999;86;21539;-56
2022/05/08 08:53:29;;;;;;;9.40;4.30;;;;;;;20.35;49.23;95059.77;1651794;87;21045;-54
2022/05/08 08:56:01;;;;;;;5.10;4.17;;;;;;;20.47;48.12;95049.39;1651749;87;21308;-55
2022/05/08 08:58:24;;;;;;;4.37;3.98;;;;;;;20.54;48.71;95049.67;1599541;88;21086;-54
2022/05/08 09:00:52;;;;;;;6.03;4.45;;;;;;;20.65;49.17;95046.91;1620287;88;21039;-54
2022/05/08 09:03:27;;;;;;;4.67;4.28;;;;;;;20.74;47.61;95048.71;1634740;87;20993;-57
2022/05/08 09:05:58;;;;;;;4.62;4.22;;;;;;;20.76;46.69;95044.77;1635438;87;21100;-56
2022/05/08 09:08:30;;;;;;;4.45;4.05;;;;;;;20.79;47.71;95039.56;1635147;87;21275;-57
2022/05/08 09:10:58;;;;;;;3.87;3.58;;;;;;;20.86;47.33;95050.27;1635408;87;21010;-55
2022/05/08 09:13:29;;;;;;;5.25;4.35;;;;;;;20.94;45.95;95046.47;1635385;87;21121;-56
2022/05/08 09:16:06;;;;;;;6.05;4.12;;;;;;;20.98;44.66;95047.63;1635167;87;21513;-55
2022/05/08 09:18:47;;;;;;;6.12;4.55;;;;;;;21.07;44.02;95048.80;1635333;87;21113;-56
2022/05/08 09:24:13;;;;;;;5.95;4.35;;;;;;;21.39;45.78;95050.05;1635253;87;21082;-54
2022/05/08 09:26:40;;;;;;;5.85;4.03;;;;;;;21.61;43.41;95052.82;1635107;87;21014;-57
2022/05/08 09:29:07;;;;;;;4.95;3.85;;;;;;;21.73;43.43;95046.75;1635161;86;21093;-55
2022/05/08 09:31:40;;;;;;;4.15;3.52;;;;;;;21.84;43.35;95041.75;1612619;87;21112;-56
2022/05/08 09:34:06;;;;;;;;;;;;;;;21.88;42.68;95046.45;1637540;87;21278;-55
2022/05/08 09:36:33;;;;;;;5.05;3.65;;;;;;;21.82;42.86;95043.66;1632024;87;20130;-56
2022/05/08 09:39:02;;;;;;;5.15;3.92;;;;;;;21.76;43.69;95036.53;1625265;88;20990;-58
2022/05/08 09:41:30;;;;;;;4.20;3.83;;;;;;;21.72;42.60;95041.64;1681534;83;21133;-57
2022/05/08 09:44:13;;;;;;;4.60;4.20;;;;;;;21.63;42.17;95040.53;1681997;85;21010;-55
2022/05/08 09:46:44;;;;;;;5.95;4.42;;;;;;;21.58;42.99;95042.64;1681808;85;21119;-56
2022/05/08 09:49:24;;;;;;;4.50;4.10;;;;;;;21.47;43.15;95041.28;1681449;85;20979;-56
2022/05/08 09:51:53;;;;;;;5.92;4.37;;;;;;;21.41;43.18;95039.87;1681673;85;21074;-55
2022/05/08 09:54:20;;;;;;;4.20;3.80;;;;;;;21.41;42.90;95041.90;1681698;85;20946;-60
2022/05/08 09:56:47;;;;;;;4.35;3.65;;;;;;;21.39;43.60;95041.65;1681467;84;21029;-56
2022/05/08 09:59:14;;;;;;;4.33;3.92;;;;;;;21.28;44.18;95041.02;1681829;85;21254;-55
2022/05/08 10:01:42;;;;;;;5.10;4.70;;;;;;;21.12;47.61;95045.98;1681891;85;20982;-55
2022/05/08 10:04:10;;;;;;;5.08;4.58;;;;;;;20.86;49.58;95042.66;1681785;85;20974;-55
2022/05/08 10:06:38;;;;;;;4.40;4.00;;;;;;;20.64;50.63;95040.42;1681725;85;21061;-56
2022/05/08 10:14:36;;;;;;;6.30;5.62;;;;;;;20.21;48.79;95039.77;1681619;85;21010;-57
2022/05/08 10:17:06;;;;;;;6.53;4.35;;;;;;;20.21;48.62;95043.97;1656615;85;21050;-57
2022/05/08 10:19:43;;;;;;;7.28;5.95;;;;;;;20.31;46.42;95029.14;1681865;85;20998;-55
2022/05/08 10:22:12;;;;;;;5.97;4.83;;;;;;;20.41;45.20;95037.44;1681876;84;21434;-58
2022/05/08 10:24:54;;;;;;;4.53;4.12;;;;;;;20.45;45.33;95036.56;1682016;85;21224;-55
2022/05/08 10:27:28;;;;;;;4.50;4.10;;;;;;;20.48;46.27;95032.75;1681867;85;22248;-56
2022/05/08 10:30:02;;;;;;;5.62;4.83;;;;;;;20.36;48.56;95032.61;1681705;85;21596;-56
2022/05/08 10:32:36;;;;;;;5.00;4.40;;;;;;;20.23;50.33;95044.23;1681893;85;21022;-56
2022/05/08 10:35:23;;;;;;;4.12;3.83;;;;;;;20.15;51.46;95038.22;1682458;85;21031;-55
2022/05/08 10:37:59;;;;;;;8.08;6.37;;;;;;;20.13;53.69;95042.80;1681788;84;21133;-56
2022/05/08 10:40:32;;;;;;;5.28;4.83;;;;;;;20.16;54.74;95035.59;1668760;85;21018;-55
2022/05/08 10:43:19;;;;;;;8.15;5.45;;;;;;;20.21;54.04;95038.38;1681944;85;20994;-56
2022/05/08 10:45:46;;;;;;;6.17;5.15;;;;;;;20.25;53.63;95033.95;1681757;85;21073;-57
2022/05/08 10:48:18;;;;;;;6.53;5.85;;;;;;;20.26;54.82;95027.88;1681747;84;21085;-57
2022/05/08 10:50:53;;;;;;;7.03;4.78;;;;;;;20.27;55.75;95030.02;1682008;85;21129;-55
2022/05/08 10:53:28;;;;;;;4.67;4.28;;;;;;;20.25;55.23;95025.57;1681227;85;20994;-55
2022/05/08 10:56:03;;;;;;;5.15;4.65;;;;;;;20.15;53.97;95027.05;1681710;85;21046;-56
2022/05/08 10:58:30;;;;;;;5.40;4.90;;;;;;;20.05;53.18;95025.75;1681149;85;20986;-56
2022/05/08 11:00:58;;;;;;;4.75;4.30;;;;;;;20.01;53.29;95019.62;1681813;85;21022;-56
2022/05/08 11:03:28;;;;;;;4.72;4.20;;;;;;;20.12;52.88;95029.45;1681908;85;21175;-58
2022/05/08 11:05:56;;;;;;;5.92;5.00;;;;;;;20.20;51.68;95026.33;1681915;85;21105;-57
2022/05/08 11:08:28;;;;;;;5.28;4.78;;;;;;;20.22;50.85;95016.80;1656863;85;21002;-55
2022/05/08 11:11:07;;;;;;;6.85;4.15;;;;;;;20.23;50.10;95022.52;1681990;85;21038;-55
2022/05/08 11:13:48;;;;;;;4.67;4.03;;;;;;;20.37;49.92;95015.31;1681943;85;20969;-56
2022/05/08 11:16:41;;;;;;;6.50;4.20;;;;;;;20.62;49.37;95013.60;1681293;85;21476;-55
2022/05/08 11:19:07;;;;;;;5.47;4.12;;;;;;;20.83;48.94;95014.30;1682136;85;21034;-57
2022/05/08 11:21:34;;;;;;;5.72;4.15;;;;;;;21.13;46.80;95013.92;1656323;85;21045;-55
2022/05/08 11:24:02;;;;;;;5.20;3.83;;;;;;;21.44;47.35;95014.30;1681860;85;21514;-54
2022/05/08 11:26:32;;;;;;;4.92;3.62;;;;;;;21.80;47.10;95009.05;1681748;85;21002;-56
2022/05/08 11:29:00;;;;;;;4.50;4.10;;;;;;;22.07;46.38;95001.30;1682090;85;20886;-54
2022/05/08 11:31:30;;;;;;;4.35;3.70;;;;;;;22.27;44.09;94998.80;1681597;85;21018;-58
2022/05/08 11:36:44;;;;;;;4.22;3.83;;;;;;;22.78;45.08;95000.81;1681699;84;21590;-57
2022/05/08 11:39:19;;;;;;;17.40;4.20;;;;;;;23.09;45.34;94999.70;1681732;85;21030;-58
2022/05/08 11:41:51;;;;;;;5.12;3.75;;;;;;;23.32;45.80;95002.47;1679394;84;21521;-58
2022/05/08 11:44:23;;;;;;;4.45;3.72;;;;;;;23.44;45.30;94996.89;1679304;85;21026;-56
2022/05/08 11:46:56;;;;;;;6.15;4.08;;;;;;;23.54;45.26;94991.69;1681910;85;21034;-57
2022/05/08 11:49:30;;;;;;;3.90;3.50;;;;;;;23.61;45.62;94998.87;1656857;85;21001;-57
2022/05/08 11:51:59;;;;;;;4.90;4.40;;;;;;;23.88;44.79;94992.87;1682201;85;21014;-56
2022/05/08 11:54:34;;;;;;;5.65;5.05;;;;;;;24.10;43.45;94993.39;1681970;85;21208;-56
2022/05/08 11:57:21;;;;;;;4.50;3.90;;;;;;;24.43;43.86;94983.13;1656850;85;21031;-59
2022/05/08 11:59:50;;;;;;;4.15;3.60;;;;;;;25.02;42.40;94978.58;1681689;85;21521;-56
2022/05/08 12:02:18;;;;;;;10.00;3.98;;;;;;;25.42;40.52;94981.66;1655950;85;21041;-57
2022/05/08 12:04:57;;;;;;;5.87;3.35;;;;;;;25.60;39.25;94970.95;1681713;85;21129;-56
2022/05/08 12:07:23;;;;;;;5.78;3.55;;;;;;;25.85;38.74;94969.52;1682015;85;21742;-55